Time;durP1;ratioP1;P1;durP2;ratioP2;P2;SDS_P1;SDS_P2;PMS_P1;PMS_P2;Temp;Humidity;BMP_temperature;BMP_pressure;BME280_temperature;BME280_humidity;BME280_pressure;Samples;Min_cycle;Max_cycle;Signal;HPM_P1;HPM_P2
2022/08/19 00:00:13;;;;;;;11.13;9.52;;;;;;;23.97;52.21;99041.53;344332;28;1904;-71
2022/08/19 00:00:26;;;;;;;11.13;9.40;;;;;;;23.96;52.43;99040.69;344320;28;1449;-70
2022/08/19 00:00:39;;;;;;;10.95;9.20;;;;;;;23.96;52.49;99039.84;344797;28;1792;-69
2022/08/19 00:00:51;;;;;;;10.98;9.05;;;;;;;23.94;52.55;99040.00;345942;28;1507;-69
2022/08/19 00:01:03;;;;;;;11.52;9.25;;;;;;;23.93;52.58;99038.34;346048;28;2179;-70
2022/08/19 00:01:15;;;;;;;11.73;9.35;;;;;;;23.92;52.53;99039.31;346171;28;1168;-69
2022/08/19 00:01:42;;;;;;;12.43;9.55;;;;;;;23.89;52.66;99040.47;346119;28;1051;-70
2022/08/19 00:01:56;;;;;;;11.60;9.75;;;;;;;23.86;52.85;99040.75;345910;28;1770;-69
2022/08/19 00:02:10;;;;;;;11.65;9.65;;;;;;;23.85;52.58;99044.41;346462;28;1008;-70
2022/08/19 00:02:22;;;;;;;11.65;9.57;;;;;;;23.75;52.95;99040.94;346236;28;1021;-70
2022/08/19 00:02:35;;;;;;;11.70;9.52;;;;;;;23.77;52.91;99038.16;346116;28;2187;-70
2022/08/19 00:02:47;;;;;;;12.48;9.43;;;;;;;23.73;52.94;99042.91;346934;28;1955;-70
2022/08/19 00:03:02;;;;;;;13.05;9.70;;;;;;;23.69;53.21;99033.59;347811;28;1907;-70
2022/08/19 00:03:14;;;;;;;12.13;9.68;;;;;;;23.69;52.99;99036.25;347718;28;1024;-71
2022/08/19 00:03:26;;;;;;;10.75;9.30;;;;;;;23.69;52.98;99039.72;347389;28;1177;-69
2022/08/19 00:03:38;;;;;;;10.25;9.15;;;;;;;23.71;53.11;99039.56;347581;28;1230;-70
2022/08/19 00:03:50;;;;;;;10.48;9.10;;;;;;;23.68;53.17;99039.84;347092;28;2181;-70
2022/08/19 00:04:06;;;;;;;11.43;9.45;;;;;;;23.61;53.26;99034.31;347004;28;1932;-69
2022/08/19 00:04:20;;;;;;;11.82;9.60;;;;;;;23.60;53.53;99042.41;347354;28;1675;-70
2022/08/19 00:04:36;;;;;;;12.43;9.88;;;;;;;23.60;53.35;99039.78;347637;28;1125;-69
2022/08/19 00:04:52;;;;;;;12.73;10.02;;;;;;;23.54;53.59;99027.94;346606;28;1409;-69
2022/08/19 00:05:04;;;;;;;12.65;9.80;;;;;;;23.59;53.58;99035.47;347679;28;2608;-69
2022/08/19 00:05:19;;;;;;;13.00;9.80;;;;;;;23.60;53.57;99037.94;346724;28;1787;-70
2022/08/19 00:05:31;;;;;;;12.68;9.65;;;;;;;23.62;53.52;99035.97;346260;28;1113;-69
2022/08/19 00:05:43;;;;;;;14.65;9.45;;;;;;;23.64;53.28;99035.84;346704;28;1924;-69
2022/08/19 00:05:55;;;;;;;14.30;9.50;;;;;;;23.64;53.27;99031.38;347114;28;1762;-70
2022/08/19 00:06:07;;;;;;;14.68;9.43;;;;;;;23.66;53.45;99032.06;345662;28;1889;-69
2022/08/19 00:06:19;;;;;;;12.15;9.38;;;;;;;23.67;53.03;99035.56;346906;28;1123;-69
2022/08/19 00:06:31;;;;;;;12.23;9.45;;;;;;;23.69;52.95;99036.25;346095;28;2052;-69
2022/08/19 00:06:46;;;;;;;12.43;9.52;;;;;;;23.68;53.04;99038.06;345513;28;1996;-70
2022/08/19 00:06:59;;;;;;;11.20;9.30;;;;;;;23.69;53.00;99036.25;345593;28;1652;-70
2022/08/19 00:07:11;;;;;;;12.13;9.25;;;;;;;23.71;53.13;99042.22;346417;28;1046;-69
2022/08/19 00:07:22;;;;;;;13.80;9.48;;;;;;;23.71;53.16;99036.91;346611;28;1054;-70
2022/08/19 00:07:35;;;;;;;12.13;9.30;;;;;;;23.72;53.17;99041.22;345710;28;2026;-69
2022/08/19 00:07:48;;;;;;;12.10;9.40;;;;;;;23.73;53.16;99037.59;347694;28;1730;-70
2022/08/19 00:08:00;;;;;;;11.60;9.20;;;;;;;23.72;53.27;99046.53;347833;28;1910;-70
2022/08/19 00:08:12;;;;;;;11.32;9.38;;;;;;;23.70;53.25;99037.88;347826;28;1906;-70
2022/08/19 00:08:24;;;;;;;11.57;9.70;;;;;;;23.69;53.36;99046.84;347549;28;1070;-70
2022/08/19 00:08:36;;;;;;;11.45;9.55;;;;;;;23.68;53.43;99039.84;347890;28;1243;-70
2022/08/19 00:08:54;;;;;;;13.23;9.40;;;;;;;23.64;53.42;99044.66;347702;28;1656;-70
2022/08/19 00:09:08;;;;;;;12.98;9.50;;;;;;;23.65;53.42;99034.88;346895;28;1067;-69
2022/08/19 00:09:22;;;;;;;11.48;9.45;;;;;;;23.65;53.58;99040.16;346436;28;938;-69
2022/08/19 00:09:34;;;;;;;12.20;9.63;;;;;;;23.65;53.43;99038.34;345995;28;1504;-70
2022/08/19 00:09:46;;;;;;;11.65;9.63;;;;;;;23.66;53.51;99042.69;345584;28;1934;-70
2022/08/19 00:09:58;;;;;;;11.55;9.75;;;;;;;23.66;53.29;99047.13;344733;28;1623;-70
2022/08/19 00:10:12;;;;;;;11.40;9.68;;;;;;;23.64;53.69;99044.66;345002;28;1051;-70
2022/08/19 00:10:24;;;;;;;13.27;9.60;;;;;;;23.64;53.72;99038.50;344284;28;2108;-70
2022/08/19 00:10:36;;;;;;;12.97;9.43;;;;;;;23.65;53.58;99041.00;345030;28;1079;-70
2022/08/19 00:10:48;;;;;;;12.63;9.40;;;;;;;23.67;53.43;99044.34;344200;28;2250;-70
2022/08/19 00:11:00;;;;;;;11.70;9.23;;;;;;;23.67;53.54;99044.34;344467;28;1911;-69
2022/08/19 00:11:13;;;;;;;11.02;9.13;;;;;;;23.67;53.40;99038.19;344611;28;1074;-70
2022/08/19 00:11:37;;;;;;;11.40;9.27;;;;;;;23.66;53.42;99048.00;345769;28;1151;-70
2022/08/19 00:11:50;;;;;;;12.35;9.68;;;;;;;23.63;53.47;99031.53;345341;28;1784;-69
2022/08/19 00:12:02;;;;;;;12.18;9.63;;;;;;;23.62;53.75;99045.75;346329;28;1860;-70
2022/08/19 00:12:15;;;;;;;12.20;9.27;;;;;;;23.61;53.79;99046.75;345277;28;1294;-70
2022/08/19 00:12:27;;;;;;;11.48;9.00;;;;;;;23.60;53.68;99043.25;346428;28;1279;-70
2022/08/19 00:12:39;;;;;;;13.27;9.30;;;;;;;23.61;53.77;99046.75;346473;28;1169;-70
2022/08/19 00:12:57;;;;;;;13.35;9.60;;;;;;;23.57;53.89;99040.06;347367;28;1722;-69
2022/08/19 00:13:10;;;;;;;11.52;9.50;;;;;;;23.57;53.95;99037.44;347604;28;1284;-69
2022/08/19 00:13:22;;;;;;;11.68;9.52;;;;;;;23.57;54.02;99040.06;347938;28;1908;-69
2022/08/19 00:13:34;;;;;;;11.05;9.20;;;;;;;23.60;53.61;99043.25;347762;28;1077;-70
2022/08/19 00:13:48;;;;;;;10.98;9.25;;;;;;;23.62;53.62;99040.44;347782;28;1211;-69
2022/08/19 00:14:00;;;;;;;12.07;9.40;;;;;;;23.61;53.94;99044.09;347503;28;1581;-70
2022/08/19 00:14:15;;;;;;;12.50;9.63;;;;;;;23.61;54.28;99044.09;347747;28;1311;-70
2022/08/19 00:14:31;;;;;;;11.45;9.73;;;;;;;23.62;54.02;99048.41;347189;28;1045;-69
2022/08/19 00:14:43;;;;;;;12.32;9.70;;;;;;;23.55;54.81;99039.41;345698;28;2297;-70
2022/08/19 00:14:55;;;;;;;12.70;9.70;;;;;;;23.52;54.13;99046.66;346475;28;1625;-70
2022/08/19 00:15:12;;;;;;;12.60;9.88;;;;;;;23.53;53.96;99043.00;346805;28;1169;-69
2022/08/19 00:15:24;;;;;;;13.07;9.97;;;;;;;23.57;54.10;99042.72;346774;28;1045;-69
2022/08/19 00:15:37;;;;;;;12.35;9.68;;;;;;;23.59;53.77;99046.06;346090;28;1644;-70
2022/08/19 00:15:49;;;;;;;11.68;9.65;;;;;;;23.54;54.26;99038.53;344910;28;2345;-70
2022/08/19 00:16:01;;;;;;;12.20;9.98;;;;;;;23.55;54.19;99042.88;346183;28;1294;-70
2022/08/19 00:16:15;;;;;;;12.57;10.05;;;;;;;23.52;54.21;99044.00;346408;28;1184;-70
2022/08/19 00:16:27;;;;;;;13.15;9.65;;;;;;;23.51;54.25;99039.69;346646;28;1584;-70
2022/08/19 00:16:41;;;;;;;12.63;9.30;;;;;;;23.53;54.28;99043.00;346434;28;1009;-70
2022/08/19 00:16:54;;;;;;;12.30;9.82;;;;;;;23.54;54.03;99043.84;346562;28;1058;-69
2022/08/19 00:17:08;;;;;;;12.52;10.00;;;;;;;23.55;54.21;99042.03;346388;28;1072;-70
2022/08/19 00:17:21;;;;;;;11.75;9.77;;;;;;;23.56;54.11;99041.03;346523;28;1049;-70
2022/08/19 00:17:33;;;;;;;12.00;9.80;;;;;;;23.53;54.19;99043.00;346606;28;1363;-70
2022/08/19 00:17:45;;;;;;;12.30;9.77;;;;;;;23.49;54.36;99041.63;345350;28;2074;-70
2022/08/19 00:17:57;;;;;;;11.68;9.73;;;;;;;23.50;54.45;99043.31;346030;28;1505;-69
2022/08/19 00:18:10;;;;;;;11.38;9.75;;;;;;;23.48;54.02;99040.00;345194;28;1886;-70
2022/08/19 00:18:22;;;;;;;11.75;9.90;;;;;;;23.50;54.17;99043.31;346185;28;1077;-69
2022/08/19 00:18:34;;;;;;;12.25;9.98;;;;;;;23.51;54.41;99037.03;346822;28;1018;-69
2022/08/19 00:18:47;;;;;;;12.13;9.85;;;;;;;23.51;54.83;99034.38;345220;28;1950;-70
2022/08/19 00:18:59;;;;;;;11.88;9.73;;;;;;;23.54;54.19;99038.53;345641;28;1905;-70
2022/08/19 00:19:12;;;;;;;11.55;9.68;;;;;;;23.57;54.04;99042.72;345167;28;1245;-69
2022/08/19 00:19:25;;;;;;;11.18;9.32;;;;;;;23.56;53.96;99041.88;344640;28;1966;-70
2022/08/19 00:19:38;;;;;;;12.02;9.32;;;;;;;23.60;54.19;99037.13;345957;28;1801;-70
2022/08/19 00:19:50;;;;;;;12.38;9.63;;;;;;;23.62;54.07;99045.75;346613;28;1066;-69
2022/08/19 00:20:03;;;;;;;12.68;9.82;;;;;;;23.63;53.52;99036.84;346211;28;1315;-69
2022/08/19 00:20:19;;;;;;;13.73;9.73;;;;;;;23.64;54.16;99043.78;346199;28;1271;-70
2022/08/19 00:20:31;;;;;;;13.77;9.88;;;;;;;23.65;54.82;99041.00;346302;28;1178;-70
2022/08/19 00:20:43;;;;;;;12.73;10.18;;;;;;;23.66;54.34;99041.81;345375;28;2035;-70
2022/08/19 00:20:55;;;;;;;12.77;10.20;;;;;;;23.66;54.39;99036.53;345866;28;1780;-70
2022/08/19 00:21:08;;;;;;;12.88;10.10;;;;;;;23.66;54.40;99036.53;345328;28;1984;-69
2022/08/19 00:21:21;;;;;;;13.65;10.20;;;;;;;23.67;54.15;99038.19;346131;28;1264;-69
2022/08/19 00:21:38;;;;;;;14.27;10.30;;;;;;;23.69;54.37;99038.88;346363;28;1139;-70
2022/08/19 00:21:50;;;;;;;13.15;10.02;;;;;;;23.71;54.47;99039.56;345197;28;1880;-70
2022/08/19 00:22:05;;;;;;;12.50;9.88;;;;;;;23.71;54.32;99035.09;345984;28;1933;-70
2022/08/19 00:22:17;;;;;;;12.48;10.23;;;;;;;23.73;54.25;99048.22;345305;28;1364;-70
2022/08/19 00:22:30;;;;;;;12.38;10.32;;;;;;;23.72;53.99;99043.88;346353;28;1164;-69
2022/08/19 00:22:42;;;;;;;12.13;10.35;;;;;;;23.73;53.90;99042.91;346000;28;2051;-71
2022/08/19 00:22:55;;;;;;;11.27;9.85;;;;;;;23.75;53.82;99035.63;345883;28;1786;-70
2022/08/19 00:23:07;;;;;;;11.18;9.73;;;;;;;23.77;53.51;99033.69;346253;28;1195;-70
2022/08/19 00:23:19;;;;;;;12.70;9.93;;;;;;;23.80;53.50;99032.56;346421;28;1272;-70
2022/08/19 00:23:33;;;;;;;12.45;9.82;;;;;;;23.81;53.57;99035.06;346518;28;1057;-69
2022/08/19 00:23:45;;;;;;;11.27;9.45;;;;;;;23.82;53.36;99036.72;345835;28;1878;-69
2022/08/19 00:23:59;;;;;;;11.77;9.70;;;;;;;23.80;53.44;99038.69;345420;28;1921;-69
2022/08/19 00:24:13;;;;;;;12.07;9.77;;;;;;;23.80;53.92;99038.69;345707;28;1659;-70
2022/08/19 00:24:28;;;;;;;12.75;10.23;;;;;;;23.80;53.49;99036.03;346266;28;1348;-69
2022/08/19 00:24:41;;;;;;;12.43;10.30;;;;;;;23.81;53.66;99035.06;346290;28;1134;-69
2022/08/19 00:25:02;;;;;;;13.05;9.82;;;;;;;23.82;54.01;99034.06;344597;28;1811;-70
2022/08/19 00:25:16;;;;;;;13.02;9.60;;;;;;;23.84;53.54;99034.75;346354;28;1166;-69
2022/08/19 00:25:28;;;;;;;12.88;9.52;;;;;;;23.84;53.39;99033.94;346459;28;1197;-70
2022/08/19 00:25:41;;;;;;;13.32;9.82;;;;;;;23.83;53.69;99033.09;344724;28;1965;-70
2022/08/19 00:25:59;;;;;;;13.07;9.98;;;;;;;23.85;53.45;99036.44;345213;28;1616;-69
2022/08/19 00:26:11;;;;;;;12.57;9.73;;;;;;;23.86;53.62;99032.78;346130;28;1064;-70
2022/08/19 00:26:25;;;;;;;13.95;9.52;;;;;;;23.87;53.50;99039.78;346550;28;1187;-70
2022/08/19 00:26:38;;;;;;;13.38;9.40;;;;;;;23.88;53.77;99041.44;346686;28;1289;-69
2022/08/19 00:26:52;;;;;;;12.40;9.60;;;;;;;23.87;53.88;99038.94;345027;28;1882;-69
2022/08/19 00:27:05;;;;;;;14.93;10.07;;;;;;;23.83;53.99;99038.41;346407;28;1271;-70
2022/08/19 00:27:37;;;;;;;12.85;9.90;;;;;;;23.82;53.44;99036.72;344986;28;1676;-71
2022/08/19 00:27:49;;;;;;;12.60;9.77;;;;;;;23.82;53.51;99036.72;345884;28;1603;-70
2022/08/19 00:28:02;;;;;;;12.32;9.75;;;;;;;23.84;53.69;99034.75;345630;28;1842;-69
2022/08/19 00:28:14;;;;;;;12.18;9.65;;;;;;;23.86;53.40;99038.09;346486;28;1215;-70
2022/08/19 00:28:26;;;;;;;11.73;9.52;;;;;;;23.88;53.41;99036.13;345058;28;2614;-70
2022/08/19 00:28:38;;;;;;;10.85;9.65;;;;;;;23.89;53.42;99044.94;345096;28;1729;-70
2022/08/19 00:28:50;;;;;;;11.00;9.85;;;;;;;23.90;53.07;99031.53;346330;28;1154;-70
2022/08/19 00:29:04;;;;;;;11.10;9.90;;;;;;;23.92;53.21;99040.16;346598;28;1314;-69
2022/08/19 00:29:18;;;;;;;12.95;9.93;;;;;;;23.93;53.31;99039.16;346408;28;1098;-69
2022/08/19 00:29:30;;;;;;;13.00;9.88;;;;;;;23.95;53.38;99035.53;344177;28;4263;-70
2022/08/19 00:29:42;;;;;;;11.48;9.60;;;;;;;23.96;52.98;99038.03;343597;28;3513;-70
2022/08/19 00:29:55;;;;;;;12.40;9.70;;;;;;;23.97;53.22;99034.41;345089;28;2168;-71
2022/08/19 00:30:10;;;;;;;12.63;9.80;;;;;;;23.98;53.20;99040.53;345561;28;2125;-70
2022/08/19 00:30:21;;;;;;;11.68;9.70;;;;;;;23.95;53.21;99041.69;344824;28;1022;-70
2022/08/19 00:30:34;;;;;;;11.15;9.50;;;;;;;23.95;53.42;99043.50;346484;28;1143;-69
2022/08/19 00:30:46;;;;;;;12.38;9.73;;;;;;;23.96;53.15;99040.69;346429;28;1810;-69
2022/08/19 00:30:59;;;;;;;12.27;9.80;;;;;;;23.95;53.42;99043.50;347428;28;1768;-69
2022/08/19 00:31:11;;;;;;;12.23;9.90;;;;;;;23.92;53.32;99042.81;346036;28;1066;-70
2022/08/19 00:31:25;;;;;;;12.75;10.00;;;;;;;23.91;53.58;99046.44;347209;28;1583;-70
2022/08/19 00:31:37;;;;;;;12.65;10.20;;;;;;;23.89;53.34;99044.94;347748;28;1035;-70
2022/08/19 00:31:52;;;;;;;12.48;10.23;;;;;;;23.89;53.35;99044.94;346620;28;2103;-70
2022/08/19 00:32:05;;;;;;;13.18;10.15;;;;;;;23.92;53.41;99047.28;347478;28;1259;-69
2022/08/19 00:32:21;;;;;;;12.95;9.65;;;;;;;23.92;53.31;99042.81;347530;28;1980;-70
2022/08/19 00:32:34;;;;;;;12.38;9.80;;;;;;;23.94;53.38;99050.63;346489;28;1681;-70
2022/08/19 00:32:46;;;;;;;11.80;9.90;;;;;;;23.93;53.08;99043.66;346175;28;1042;-70
2022/08/19 00:32:58;;;;;;;12.38;9.88;;;;;;;23.95;53.21;99046.16;346272;28;1366;-70
2022/08/19 00:33:10;;;;;;;12.23;9.77;;;;;;;23.93;52.96;99049.78;346532;28;1210;-69
2022/08/19 00:33:22;;;;;;;12.30;9.80;;;;;;;23.94;53.14;99055.94;346937;28;2057;-70
2022/08/19 00:33:34;;;;;;;12.75;9.90;;;;;;;23.93;53.25;99047.13;347642;28;1253;-70
2022/08/19 00:33:49;;;;;;;12.45;9.82;;;;;;;23.91;53.22;99041.16;347111;28;2063;-70
2022/08/19 00:34:01;;;;;;;12.48;9.88;;;;;;;23.91;53.39;99046.44;345624;28;1721;-70
2022/08/19 00:34:14;;;;;;;12.30;9.93;;;;;;;23.88;53.58;99046.72;345983;28;1438;-70
2022/08/19 00:34:29;;;;;;;12.02;9.50;;;;;;;23.86;53.94;99043.41;345043;28;1111;-70
2022/08/19 00:34:41;;;;;;;12.88;9.63;;;;;;;23.87;53.80;99054.88;346195;28;1073;-70
2022/08/19 00:34:53;;;;;;;13.00;9.98;;;;;;;23.87;53.63;99049.56;345092;28;1751;-70
2022/08/19 00:35:06;;;;;;;13.98;10.10;;;;;;;23.88;53.68;99052.03;345915;28;1341;-69
2022/08/19 00:35:18;;;;;;;12.27;9.60;;;;;;;23.88;53.38;99052.03;344880;28;1069;-69
2022/08/19 00:35:30;;;;;;;12.15;9.82;;;;;;;23.89;53.52;99048.41;344762;28;1265;-70
2022/08/19 00:35:42;;;;;;;13.48;10.15;;;;;;;23.90;53.56;99055.41;344739;28;1945;-71
2022/08/19 00:35:55;;;;;;;12.32;9.73;;;;;;;23.89;53.28;99053.72;344827;28;1786;-70
2022/08/19 00:36:09;;;;;;;11.80;9.45;;;;;;;23.91;53.31;99051.75;345940;28;1054;-70
2022/08/19 00:36:21;;;;;;;12.48;9.52;;;;;;;23.90;53.24;99054.56;345640;28;2018;-70
2022/08/19 00:36:33;;;;;;;13.68;9.82;;;;;;;23.88;53.22;99057.34;346063;28;1323;-69
2022/08/19 00:36:46;;;;;;;13.05;9.60;;;;;;;23.89;53.16;99058.22;344131;28;2004;-69
2022/08/19 00:36:59;;;;;;;11.68;9.65;;;;;;;23.90;53.63;99059.88;344422;28;1777;-70
2022/08/19 00:37:11;;;;;;;12.75;9.93;;;;;;;23.85;53.64;99056.84;344165;28;2127;-71
2022/08/19 00:37:25;;;;;;;12.60;10.00;;;;;;;23.84;53.52;99060.47;345169;28;1700;-70
2022/08/19 00:37:38;;;;;;;11.85;9.98;;;;;;;23.81;53.49;99056.28;345162;28;1303;-70
2022/08/19 00:37:50;;;;;;;12.35;10.10;;;;;;;23.81;53.64;99056.28;343741;28;1871;-70
2022/08/19 00:38:02;;;;;;;12.30;9.75;;;;;;;23.82;53.32;99052.66;345960;28;1908;-69
2022/08/19 00:38:14;;;;;;;11.88;9.57;;;;;;;23.80;53.55;99054.63;344989;28;2013;-70
2022/08/19 00:38:27;;;;;;;12.63;9.90;;;;;;;23.80;53.45;99056.44;346199;28;1333;-69
2022/08/19 00:38:51;;;;;;;12.80;10.05;;;;;;;23.76;53.55;99058.53;345372;28;1940;-70
2022/08/19 00:39:03;;;;;;;12.98;9.88;;;;;;;23.75;53.65;99056.88;346179;28;2040;-71
2022/08/19 00:39:16;;;;;;;12.48;9.50;;;;;;;23.73;53.70;99053.53;346611;28;1014;-70
2022/08/19 00:39:28;;;;;;;12.10;9.70;;;;;;;23.72;53.64;99062.44;346433;28;1224;-69
2022/08/19 00:39:40;;;;;;;12.10;9.63;;;;;;;23.71;53.86;99050.19;346809;28;1238;-69
2022/08/19 00:39:53;;;;;;;11.85;9.88;;;;;;;23.70;53.75;99052.00;346087;28;1843;-70
2022/08/19 00:40:06;;;;;;;11.90;9.80;;;;;;;23.69;53.77;99052.16;346585;28;1267;-70
2022/08/19 00:40:19;;;;;;;11.85;9.95;;;;;;;23.67;54.36;99054.94;346377;28;1284;-69
2022/08/19 00:40:31;;;;;;;12.32;10.00;;;;;;;23.66;53.96;99052.44;346711;28;1087;-69
2022/08/19 00:40:46;;;;;;;11.85;9.85;;;;;;;23.64;54.19;99052.59;346418;28;1998;-70
2022/08/19 00:40:58;;;;;;;11.10;9.50;;;;;;;23.65;54.08;99050.78;346449;28;1347;-69
2022/08/19 00:41:14;;;;;;;12.02;9.82;;;;;;;23.65;54.04;99046.31;344749;28;1117;-71
2022/08/19 00:41:27;;;;;;;11.63;9.73;;;;;;;23.65;53.95;99048.97;344785;28;1724;-70
2022/08/19 00:41:41;;;;;;;11.63;9.73;;;;;;;23.64;54.21;99044.66;345206;28;1027;-70
2022/08/19 00:41:53;;;;;;;11.85;10.00;;;;;;;23.63;54.19;99052.75;345823;28;1919;-70
2022/08/19 00:42:06;;;;;;;11.00;9.73;;;;;;;23.63;54.41;99050.09;345895;28;1677;-70
2022/08/19 00:42:20;;;;;;;11.48;9.38;;;;;;;23.64;54.16;99051.75;345882;28;1585;-70
2022/08/19 00:42:32;;;;;;;12.00;9.52;;;;;;;23.59;54.35;99052.22;346788;28;1073;-70
2022/08/19 00:42:44;;;;;;;11.48;9.55;;;;;;;23.57;54.36;99048.88;346437;28;2112;-71
2022/08/19 00:42:56;;;;;;;11.30;9.93;;;;;;;23.59;54.21;99056.69;346147;28;1735;-69
2022/08/19 00:43:10;;;;;;;11.57;9.90;;;;;;;23.59;53.88;99051.38;346419;28;1206;-69
2022/08/19 00:43:26;;;;;;;12.50;9.70;;;;;;;23.59;54.32;99046.91;346758;28;914;-69
2022/08/19 00:43:40;;;;;;;12.93;9.85;;;;;;;23.57;54.29;99042.72;346940;28;1241;-69
2022/08/19 00:44:16;;;;;;;12.75;9.90;;;;;;;23.56;54.27;99046.34;345831;28;1913;-70
2022/08/19 00:44:30;;;;;;;11.77;9.68;;;;;;;23.56;54.49;99041.03;345568;28;1969;-69
2022/08/19 00:44:42;;;;;;;13.13;9.57;;;;;;;23.51;54.30;99050.28;345735;28;1825;-69
2022/08/19 00:44:54;;;;;;;12.68;9.60;;;;;;;23.51;54.40;99047.63;345967;28;1233;-69
2022/08/19 00:45:14;;;;;;;11.50;9.48;;;;;;;23.47;54.68;99048.91;346498;28;1030;-70
2022/08/19 00:45:31;;;;;;;11.52;10.13;;;;;;;23.47;54.69;99048.91;346031;28;1710;-69
2022/08/19 00:45:47;;;;;;;14.20;10.38;;;;;;;23.45;54.56;99039.44;345327;28;1963;-69
2022/08/19 00:46:01;;;;;;;13.85;10.00;;;;;;;23.45;54.62;99050.88;345846;28;1689;-70
2022/08/19 00:46:13;;;;;;;12.60;10.00;;;;;;;23.41;54.81;99046.84;346357;28;1070;-70
2022/08/19 00:46:25;;;;;;;14.00;10.07;;;;;;;23.33;55.09;99052.06;346335;28;1228;-70
2022/08/19 00:46:40;;;;;;;14.35;9.80;;;;;;;23.33;54.92;99046.75;345848;28;1741;-70
2022/08/19 00:46:55;;;;;;;14.60;9.93;;;;;;;23.27;55.36;99052.63;345408;28;2006;-70
2022/08/19 00:47:11;;;;;;;13.75;10.02;;;;;;;23.30;55.33;99047.03;345974;28;1181;-69
2022/08/19 00:47:27;;;;;;;12.85;9.88;;;;;;;23.32;55.24;99051.22;345658;28;2024;-70
2022/08/19 00:47:39;;;;;;;12.70;9.95;;;;;;;23.29;55.40;99051.50;346397;28;1022;-69
2022/08/19 00:47:51;;;;;;;12.23;9.80;;;;;;;23.30;55.12;99049.69;344938;28;1860;-70
2022/08/19 00:48:04;;;;;;;12.35;9.65;;;;;;;23.27;55.15;99057.94;346406;28;1341;-70
2022/08/19 00:48:25;;;;;;;13.07;10.00;;;;;;;23.28;55.39;99049.00;346487;28;1247;-70
2022/08/19 00:48:37;;;;;;;13.70;10.02;;;;;;;23.29;55.29;99055.97;345624;28;1014;-70
2022/08/19 00:48:49;;;;;;;13.27;9.80;;;;;;;23.27;55.53;99052.63;345207;28;1917;-70
2022/08/19 00:49:06;;;;;;;11.90;9.55;;;;;;;23.28;55.28;99049.00;345807;28;1517;-70
2022/08/19 00:49:32;;;;;;;11.90;9.88;;;;;;;23.24;55.69;99047.63;346422;28;1086;-69
2022/08/19 00:49:52;;;;;;;13.57;10.38;;;;;;;23.10;55.84;99052.44;346145;28;1971;-71
2022/08/19 00:50:06;;;;;;;12.75;9.90;;;;;;;23.16;55.89;99050.16;346241;28;1544;-71
2022/08/19 00:50:20;;;;;;;12.48;10.05;;;;;;;23.17;56.05;99046.53;346774;28;1411;-70
2022/08/19 00:50:33;;;;;;;12.70;9.80;;;;;;;23.18;55.69;99042.91;345735;28;1902;-69
2022/08/19 00:50:48;;;;;;;12.77;9.93;;;;;;;23.20;55.64;99043.59;345966;28;1915;-70
2022/08/19 00:51:04;;;;;;;13.38;10.60;;;;;;;23.19;55.91;99047.22;346029;28;1339;-70
2022/08/19 00:51:16;;;;;;;14.00;10.60;;;;;;;23.21;55.64;99042.63;345076;28;1270;-70
2022/08/19 00:51:32;;;;;;;13.57;10.25;;;;;;;23.15;55.79;99043.19;345499;28;1973;-70
2022/08/19 00:51:47;;;;;;;14.07;9.90;;;;;;;23.17;55.72;99044.72;346086;28;1944;-70
2022/08/19 00:52:04;;;;;;;14.38;10.10;;;;;;;23.21;55.52;99037.31;346193;28;1418;-71
2022/08/19 00:52:24;;;;;;;12.57;9.85;;;;;;;23.25;55.74;99038.69;345065;28;2010;-70
2022/08/19 00:52:44;;;;;;;12.45;10.07;;;;;;;23.26;55.50;99040.34;343325;28;1090;-70
2022/08/19 00:52:57;;;;;;;13.27;10.38;;;;;;;23.25;55.76;99038.69;343894;28;1783;-69
2022/08/19 00:53:14;;;;;;;12.85;10.32;;;;;;;23.28;55.62;99033.94;344808;28;1630;-70
2022/08/19 00:53:31;;;;;;;12.05;10.07;;;;;;;23.26;55.85;99037.69;344753;28;1280;-69
2022/08/19 00:53:43;;;;;;;11.95;10.13;;;;;;;23.25;55.72;99041.34;346296;28;1370;-70
2022/08/19 00:53:57;;;;;;;12.68;10.23;;;;;;;23.27;55.33;99036.72;346085;28;1902;-70
2022/08/19 00:54:09;;;;;;;12.40;10.40;;;;;;;23.27;55.96;99031.44;345119;28;1280;-69
2022/08/19 00:54:21;;;;;;;12.75;10.43;;;;;;;23.23;55.91;99035.34;345051;28;1280;-70
2022/08/19 00:54:44;;;;;;;13.15;10.20;;;;;;;23.20;55.99;99027.69;345349;28;1313;-70
2022/08/19 00:55:01;;;;;;;13.70;10.45;;;;;;;23.20;55.85;99025.03;345422;28;1578;-70
2022/08/19 00:55:20;;;;;;;14.15;10.57;;;;;;;23.20;55.81;99025.03;345185;28;1049;-70
2022/08/19 00:55:32;;;;;;;15.25;10.80;;;;;;;23.16;56.09;99023.66;345096;28;933;-70
2022/08/19 00:55:47;;;;;;;14.90;10.43;;;;;;;23.17;55.93;99025.34;344852;28;1874;-69
2022/08/19 00:56:05;;;;;;;12.40;9.80;;;;;;;23.20;55.68;99020.56;345951;28;1493;-70
2022/08/19 00:56:18;;;;;;;13.38;10.20;;;;;;;23.12;55.87;99023.13;346728;28;1116;-70
2022/08/19 00:56:30;;;;;;;14.30;10.20;;;;;;;23.17;56.04;99017.38;345950;28;1811;-70
2022/08/19 00:56:44;;;;;;;14.40;10.27;;;;;;;23.22;55.85;99020.41;346424;28;1162;-70
2022/08/19 00:56:56;;;;;;;12.38;9.95;;;;;;;23.26;55.64;99019.13;346173;28;1773;-70
2022/08/19 00:57:12;;;;;;;11.35;9.35;;;;;;;23.29;55.68;99018.84;346529;28;1160;-71
2022/08/19 00:57:30;;;;;;;11.32;9.55;;;;;;;23.32;55.21;99018.53;346207;28;1120;-70
2022/08/19 00:57:47;;;;;;;12.88;10.02;;;;;;;23.33;55.33;99014.94;346321;28;1215;-70
2022/08/19 00:58:05;;;;;;;15.48;10.15;;;;;;;23.35;55.34;99018.25;345986;28;1580;-69
2022/08/19 00:58:20;;;;;;;16.17;9.98;;;;;;;23.35;55.29;99017.44;346114;28;1320;-69
2022/08/19 00:58:34;;;;;;;12.57;9.73;;;;;;;23.34;55.46;99019.22;345726;28;1860;-69
2022/08/19 00:58:46;;;;;;;12.55;9.70;;;;;;;23.34;55.60;99016.56;345787;28;1787;-69
2022/08/19 00:58:59;;;;;;;12.40;9.60;;;;;;;23.31;55.53;99017.72;346177;28;1141;-69
2022/08/19 00:59:11;;;;;;;11.55;9.93;;;;;;;23.33;55.30;99013.09;345149;28;1246;-69
2022/08/19 00:59:25;;;;;;;11.65;9.98;;;;;;;23.36;55.33;99017.28;345189;28;1280;-69
2022/08/19 00:59:59;;;;;;;11.90;9.75;;;;;;;23.19;55.29;99012.75;345932;28;1619;-69
2022/08/19 01:00:17;;;;;;;12.93;10.13;;;;;;;23.10;56.38;99015.31;346079;28;1717;-69
2022/08/19 01:00:30;;;;;;;15.30;10.10;;;;;;;23.12;56.09;99013.34;346653;28;1660;-69
2022/08/19 01:00:43;;;;;;;16.05;10.05;;;;;;;23.14;55.68;99010.56;346600;28;1529;-69
2022/08/19 01:00:55;;;;;;;14.35;10.13;;;;;;;23.16;55.69;99018.34;346110;28;1625;-69
2022/08/19 01:01:07;;;;;;;14.50;10.38;;;;;;;23.17;55.92;99014.72;346533;28;1430;-69
2022/08/19 01:01:19;;;;;;;14.23;10.25;;;;;;;23.12;55.74;99016.00;346241;28;1273;-69
2022/08/19 01:01:31;;;;;;;13.60;10.25;;;;;;;23.14;55.72;99010.56;345163;28;1871;-69
2022/08/19 01:01:45;;;;;;;11.88;9.90;;;;;;;23.14;56.08;99010.56;346069;28;1045;-69
2022/08/19 01:01:57;;;;;;;12.50;9.93;;;;;;;23.06;56.17;99011.28;346132;28;1703;-69
2022/08/19 01:02:09;;;;;;;14.20;10.18;;;;;;;23.05;56.19;99014.91;346415;28;1034;-69
2022/08/19 01:02:22;;;;;;;14.18;10.27;;;;;;;23.06;55.96;99013.94;345375;28;2030;-69
2022/08/19 01:02:34;;;;;;;13.82;10.13;;;;;;;23.09;56.32;99008.31;344912;28;1022;-69
2022/08/19 01:02:47;;;;;;;13.40;9.95;;;;;;;23.12;56.06;99008.03;344691;28;1807;-69
2022/08/19 01:02:59;;;;;;;12.63;9.68;;;;;;;23.15;55.99;99017.53;346006;28;1580;-69
2022/08/19 01:03:14;;;;;;;11.02;9.52;;;;;;;23.10;56.17;99015.31;345585;28;1514;-70
2022/08/19 01:03:30;;;;;;;12.10;9.80;;;;;;;23.03;56.33;99013.38;344743;28;1064;-70
2022/08/19 01:04:02;;;;;;;12.40;10.30;;;;;;;23.12;56.23;99013.34;345486;28;1619;-69
2022/08/19 01:04:14;;;;;;;14.43;10.47;;;;;;;23.16;55.84;99007.75;345682;28;1552;-69
2022/08/19 01:04:25;;;;;;;14.60;10.35;;;;;;;23.17;56.00;99017.38;345795;28;1938;-69
2022/08/19 01:04:38;;;;;;;13.98;10.02;;;;;;;23.18;56.15;99021.69;345178;28;1029;-69
2022/08/19 01:04:50;;;;;;;13.03;9.93;;;;;;;23.06;56.24;99019.22;345826;28;2355;-69
2022/08/19 01:05:06;;;;;;;13.15;10.32;;;;;;;23.12;56.15;99012.53;345963;28;1603;-69
2022/08/19 01:05:22;;;;;;;12.98;10.45;;;;;;;23.09;56.36;99024.22;346120;28;1109;-70
2022/08/19 01:05:36;;;;;;;11.52;9.73;;;;;;;23.11;56.08;99014.31;346047;28;1264;-69
2022/08/19 01:05:50;;;;;;;12.20;9.73;;;;;;;23.12;56.14;99018.66;345549;28;1944;-69
2022/08/19 01:06:02;;;;;;;12.48;9.80;;;;;;;23.09;56.03;99015.44;346209;28;1599;-69